Time;durP1;ratioP1;P1;durP2;ratioP2;P2;SDS_P1;SDS_P2;PMS_P1;PMS_P2;Temp;Humidity;BMP_temperature;BMP_pressure;BME280_temperature;BME280_humidity;BME280_pressure;Samples;Min_cycle;Max_cycle;Signal;HPM_P1;HPM_P2
2023/02/02 00:01:40;;;;;;;;;;;;;;;;;;4957670;28;19918;-76
2023/02/02 00:04:06;;;;;;;;;;;;;;;;;;4954054;28;19957;-77
2023/02/02 00:06:32;;;;;;;;;;;;;;;;;;4946602;28;19918;-77
2023/02/02 00:08:58;;;;;;;;;;;;;;;;;;4943843;28;19918;-76
2023/02/02 00:11:25;;;;;;;;;;;;;;;;;;4946699;28;20349;-76
2023/02/02 00:13:51;;;;;;;;;;;;;;;;;;4947160;28;19989;-76
2023/02/02 00:16:17;;;;;;;;;;;;;;;;;;4972354;28;19992;-76
2023/02/02 00:18:43;;;;;;;;;;;;;;;;;;4967870;28;19953;-76
2023/02/02 00:21:09;;;;;;;;;;;;;;;;;;4953372;28;19922;-77
2023/02/02 00:23:39;;;;;;;;;;;;;;;;;;4976040;28;19922;-77
2023/02/02 00:26:05;;;;;;;;;;;;;;;;;;4973356;28;19914;-76
2023/02/02 00:28:31;;;;;;;;;;;;;;;;;;4976597;28;19926;-76
2023/02/02 00:30:57;;;;;;;;;;;;;;;;;;4968066;28;20332;-77
2023/02/02 00:33:24;;;;;;;;;;;;;;;;;;4982838;28;19921;-77
2023/02/02 00:35:50;;;;;;;;;;;;;;;;;;4964216;28;19913;-76
2023/02/02 00:38:16;;;;;;;;;;;;;;;;;;4984599;28;20448;-76
2023/02/02 00:40:42;;;;;;;;;;;;;;;;;;4966885;28;20005;-76
2023/02/02 00:43:09;;;;;;;;;;;;;;;;;;4961806;28;19926;-77
2023/02/02 00:45:35;;;;;;;;;;;;;;;;;;4975400;28;19914;-77
2023/02/02 00:48:02;;;;;;;;;;;;;;;;;;4982784;28;20050;-77
2023/02/02 00:50:28;;;;;;;;;;;;;;;;;;4964183;28;19960;-77
2023/02/02 00:52:54;;;;;;;;;;;;;;;;;;4957122;28;19925;-74
2023/02/02 00:55:20;;;;;;;;;;;;;;;;;;4986777;28;19918;-76
2023/02/02 00:57:47;;;;;;;;;;;;;;;;;;4985710;28;19964;-76
2023/02/02 01:00:13;;;;;;;;;;;;;;;;;;4965992;28;19917;-76
2023/02/02 01:02:40;;;;;;;;;;;;;;;;;;4968500;28;20334;-76
2023/02/02 01:05:06;;;;;;;;;;;;;;;;;;4980214;28;20546;-75
2023/02/02 01:07:32;;;;;;;;;;;;;;;;;;4959615;28;19918;-75
2023/02/02 01:09:58;;;;;;;;;;;;;;;;;;4986500;28;19945;-75
2023/02/02 01:12:25;;;;;;;;;;;;;;;;;;4957035;28;20449;-76
2023/02/02 01:14:51;;;;;;;;;;;;;;;;;;4988358;28;19925;-76
2023/02/02 01:17:18;;;;;;;;;;;;;;;;;;4966306;28;19930;-75
2023/02/02 01:19:44;;;;;;;;;;;;;;;;;;4943954;28;19972;-76
2023/02/02 01:22:10;;;;;;;;;;;;;;;;;;4943795;28;20294;-75
2023/02/02 01:24:36;;;;;;;;;;;;;;;;;;4962618;28;20390;-75
2023/02/02 01:27:03;;;;;;;;;;;;;;;;;;4932983;28;19965;-76
2023/02/02 01:29:29;;;;;;;;;;;;;;;;;;4940417;28;19929;-76
2023/02/02 01:31:55;;;;;;;;;;;;;;;;;;4947006;28;19918;-76
2023/02/02 01:34:21;;;;;;;;;;;;;;;;;;4940575;28;20001;-76
2023/02/02 01:36:48;;;;;;;;;;;;;;;;;;4946931;28;20028;-76
2023/02/02 01:39:14;;;;;;;;;;;;;;;;;;4951601;28;19921;-77
2023/02/02 01:41:41;;;;;;;;;;;;;;;;;;4963137;28;19966;-76
2023/02/02 01:44:07;;;;;;;;;;;;;;;;;;4947465;28;19918;-77
2023/02/02 01:46:33;;;;;;;;;;;;;;;;;;4947556;28;20297;-77
2023/02/02 01:48:59;;;;;;;;;;;;;;;;;;4966825;28;19977;-77
2023/02/02 01:51:25;;;;;;;;;;;;;;;;;;4948787;28;19914;-75
2023/02/02 01:53:52;;;;;;;;;;;;;;;;;;4943791;28;19990;-77
2023/02/02 01:56:18;;;;;;;;;;;;;;;;;;4958833;28;19945;-74
2023/02/02 01:58:44;;;;;;;;;;;;;;;;;;4939864;28;19981;-76
2023/02/02 02:01:11;;;;;;;;;;;;;;;;;;4952459;28;20378;-76
2023/02/02 02:03:37;;;;;;;;;;;;;;;;;;4957463;28;20038;-74
2023/02/02 02:06:04;;;;;;;;;;;;;;;;;;4940022;28;19994;-76
2023/02/02 02:08:30;;;;;;;;;;;;;;;;;;4963517;28;19922;-77
2023/02/02 02:10:56;;;;;;;;;;;;;;;;;;4953836;28;19918;-76
2023/02/02 02:16:17;;;;;;;;;;;;;;;;;;4931142;28;19922;-77
2023/02/02 02:16:18;;;;;;;;;;;;;;;;;;4947240;28;19934;-76
2023/02/02 02:18:47;;;;;;;;;;;;;;;;;;4957271;28;19926;-76
2023/02/02 02:26:58;;;;;;;;;;;;;;;;;;4963249;28;19965;-76
2023/02/02 02:29:24;;;;;;;;;;;;;;;;;;4956551;28;19926;-76
2023/02/02 02:31:50;;;;;;;;;;;;;;;;;;4951161;28;19993;-77
2023/02/02 02:34:16;;;;;;;;;;;;;;;;;;4949451;28;19917;-76
2023/02/02 02:36:43;;;;;;;;;;;;;;;;;;4942476;28;20523;-76
2023/02/02 02:39:09;;;;;;;;;;;;;;;;;;4949635;28;19921;-77
2023/02/02 02:41:35;;;;;;;;;;;;;;;;;;4961328;28;19918;-76
2023/02/02 02:44:01;;;;;;;;;;;;;;;;;;4968422;28;19922;-76
2023/02/02 02:46:27;;;;;;;;;;;;;;;;;;4944524;28;19949;-77
2023/02/02 02:48:54;;;;;;;;;;;;;;;;;;4940323;28;20461;-76
2023/02/02 02:51:20;;;;;;;;;;;;;;;;;;4944848;28;19918;-77
2023/02/02 02:53:46;;;;;;;;;;;;;;;;;;4934478;28;19982;-76
2023/02/02 02:56:12;;;;;;;;;;;;;;;;;;4949202;28;19922;-76
2023/02/02 02:58:39;;;;;;;;;;;;;;;;;;4945596;28;20254;-76
2023/02/02 03:01:05;;;;;;;;;;;;;;;;;;4952831;28;19925;-76
2023/02/02 03:03:31;;;;;;;;;;;;;;;;;;4959127;28;20386;-75
2023/02/02 03:05:57;;;;;;;;;;;;;;;;;;4947558;28;19921;-77
2023/02/02 03:08:23;;;;;;;;;;;;;;;;;;4946046;28;19914;-76
2023/02/02 03:10:50;;;;;;;;;;;;;;;;;;4948436;28;19922;-76
2023/02/02 03:13:16;;;;;;;;;;;;;;;;;;4951560;28;19918;-76
2023/02/02 03:15:42;;;;;;;;;;;;;;;;;;4950088;28;19941;-76
2023/02/02 03:18:08;;;;;;;;;;;;;;;;;;4939079;28;19926;-76
2023/02/02 03:20:35;;;;;;;;;;;;;;;;;;4948827;28;19926;-76
2023/02/02 03:23:01;;;;;;;;;;;;;;;;;;4947711;28;20390;-76
2023/02/02 03:25:27;;;;;;;;;;;;;;;;;;4945056;28;20051;-77
2023/02/02 03:27:53;;;;;;;;;;;;;;;;;;4947117;28;19919;-77
2023/02/02 03:30:20;;;;;;;;;;;;;;;;;;4945746;28;19922;-76
2023/02/02 03:32:46;;;;;;;;;;;;;;;;;;4959660;28;20432;-76
2023/02/02 03:35:12;;;;;;;;;;;;;;;;;;4950871;28;20291;-77
2023/02/02 03:37:38;;;;;;;;;;;;;;;;;;4950206;28;19926;-77
2023/02/02 03:40:05;;;;;;;;;;;;;;;;;;4960027;28;19990;-77
2023/02/02 03:42:31;;;;;;;;;;;;;;;;;;4936863;28;19941;-76
2023/02/02 03:44:57;;;;;;;;;;;;;;;;;;4956333;28;20343;-76
2023/02/02 03:47:23;;;;;;;;;;;;;;;;;;4935016;28;19922;-76
2023/02/02 03:49:49;;;;;;;;;;;;;;;;;;4949993;28;19918;-76
2023/02/02 03:52:16;;;;;;;;;;;;;;;;;;4928740;28;19925;-76
2023/02/02 03:54:42;;;;;;;;;;;;;;;;;;4938030;28;19933;-76
2023/02/02 03:57:08;;;;;;;;;;;;;;;;;;4941631;28;19922;-76
2023/02/02 03:59:34;;;;;;;;;;;;;;;;;;4967414;28;19918;-75
2023/02/02 04:02:01;;;;;;;;;;;;;;;;;;4943707;28;19926;-75
2023/02/02 04:04:27;;;;;;;;;;;;;;;;;;4961325;28;19949;-75
2023/02/02 04:06:53;;;;;;;;;;;;;;;;;;4955338;28;19976;-75
2023/02/02 04:09:19;;;;;;;;;;;;;;;;;;4947885;28;19966;-75
2023/02/02 04:11:46;;;;;;;;;;;;;;;;;;4962028;28;19918;-75
2023/02/02 04:14:12;;;;;;;;;;;;;;;;;;4940495;28;19926;-76
2023/02/02 04:16:38;;;;;;;;;;;;;;;;;;4967384;28;19950;-75
2023/02/02 04:19:04;;;;;;;;;;;;;;;;;;4967933;28;20283;-77
2023/02/02 04:21:30;;;;;;;;;;;;;;;;;;4941556;28;19977;-76
2023/02/02 04:23:57;;;;;;;;;;;;;;;;;;4937145;28;19922;-78
2023/02/02 04:26:27;;;;;;;;;;;;;;;;;;4946524;28;19988;-76
2023/02/02 04:28:53;;;;;;;;;;;;;;;;;;4965331;28;19921;-77
2023/02/02 04:31:19;;;;;;;;;;;;;;;;;;4957637;28;19921;-76
2023/02/02 04:33:45;;;;;;;;;;;;;;;;;;4960832;28;19918;-76
2023/02/02 04:36:12;;;;;;;;;;;;;;;;;;4948384;28;20407;-76
2023/02/02 04:38:38;;;;;;;;;;;;;;;;;;4948593;28;19928;-75
2023/02/02 04:41:04;;;;;;;;;;;;;;;;;;4933893;28;19922;-75
2023/02/02 04:43:30;;;;;;;;;;;;;;;;;;4947467;28;19918;-76
2023/02/02 04:45:57;;;;;;;;;;;;;;;;;;4960314;28;20305;-76
2023/02/02 04:48:23;;;;;;;;;;;;;;;;;;4944576;28;20362;-75
2023/02/02 04:50:49;;;;;;;;;;;;;;;;;;4967317;28;19918;-75
2023/02/02 04:53:15;;;;;;;;;;;;;;;;;;4945709;28;19922;-77
2023/02/02 04:55:41;;;;;;;;;;;;;;;;;;4939073;28;19930;-77
2023/02/02 04:58:08;;;;;;;;;;;;;;;;;;4961310;28;19934;-75
2023/02/02 05:00:34;;;;;;;;;;;;;;;;;;4951634;28;19933;-78
2023/02/02 05:03:00;;;;;;;;;;;;;;;;;;4948459;28;19973;-77
2023/02/02 05:05:26;;;;;;;;;;;;;;;;;;4945584;28;20038;-76
2023/02/02 05:07:53;;;;;;;;;;;;;;;;;;4942734;28;19922;-77
2023/02/02 05:10:19;;;;;;;;;;;;;;;;;;4953731;28;19966;-77
2023/02/02 05:12:45;;;;;;;;;;;;;;;;;;4935625;28;19922;-77
2023/02/02 05:15:11;;;;;;;;;;;;;;;;;;4946699;28;20477;-77
2023/02/02 05:17:38;;;;;;;;;;;;;;;;;;4973931;28;19921;-77
2023/02/02 05:20:04;;;;;;;;;;;;;;;;;;4979957;28;20443;-77
2023/02/02 05:22:30;;;;;;;;;;;;;;;;;;4978694;28;19921;-77
2023/02/02 05:24:56;;;;;;;;;;;;;;;;;;4967285;28;19972;-77
2023/02/02 05:27:22;;;;;;;;;;;;;;;;;;4961963;28;19946;-76
2023/02/02 05:29:48;;;;;;;;;;;;;;;;;;4969577;28;19960;-77
2023/02/02 05:32:15;;;;;;;;;;;;;;;;;;4990861;28;19929;-76
2023/02/02 05:34:41;;;;;;;;;;;;;;;;;;4989753;28;19968;-76
2023/02/02 05:37:07;;;;;;;;;;;;;;;;;;4967077;28;19933;-75
2023/02/02 05:39:33;;;;;;;;;;;;;;;;;;4971103;28;19921;-76
2023/02/02 05:42:00;;;;;;;;;;;;;;;;;;4975610;28;19914;-76
2023/02/02 05:44:26;;;;;;;;;;;;;;;;;;4973649;28;19925;-77
2023/02/02 05:46:52;;;;;;;;;;;;;;;;;;4981165;28;19922;-76
2023/02/02 05:49:18;;;;;;;;;;;;;;;;;;4988811;28;19914;-76
2023/02/02 05:51:44;;;;;;;;;;;;;;;;;;4989627;28;19984;-76
2023/02/02 05:54:11;;;;;;;;;;;;;;;;;;4992153;28;19936;-76
2023/02/02 05:56:38;;;;;;;;;;;;;;;;;;4956640;28;19922;-76
2023/02/02 05:59:06;;;;;;;;;;;;;;;;;;4968566;28;19917;-77
2023/02/02 06:01:32;;;;;;;;;;;;;;;;;;4991698;28;20341;-77
2023/02/02 06:03:58;;;;;;;;;;;;;;;;;;4958650;28;19925;-77
2023/02/02 06:06:24;;;;;;;;;;;;;;;;;;4986773;28;19918;-77
2023/02/02 06:08:51;;;;;;;;;;;;;;;;;;4979703;28;20561;-76
2023/02/02 06:11:17;;;;;;;;;;;;;;;;;;4963962;28;20008;-76
2023/02/02 06:13:43;;;;;;;;;;;;;;;;;;4972203;28;20576;-77
2023/02/02 06:16:12;;;;;;;;;;;;;;;;;;4963814;28;19930;-77
2023/02/02 06:18:39;;;;;;;;;;;;;;;;;;4976371;28;19921;-77
2023/02/02 06:21:05;;;;;;;;;;;;;;;;;;4961890;28;20403;-76
2023/02/02 06:23:31;;;;;;;;;;;;;;;;;;4992965;28;19921;-77
2023/02/02 06:25:57;;;;;;;;;;;;;;;;;;4989708;28;19926;-77
2023/02/02 06:28:24;;;;;;;;;;;;;;;;;;4998220;28;20352;-77
2023/02/02 06:30:50;;;;;;;;;;;;;;;;;;4983814;28;19913;-76
2023/02/02 06:33:16;;;;;;;;;;;;;;;;;;4979608;28;20494;-77
2023/02/02 06:35:42;;;;;;;;;;;;;;;;;;4966634;28;19918;-77
2023/02/02 06:38:10;;;;;;;;;;;;;;;;;;4951347;28;20164;-77
2023/02/02 06:40:36;;;;;;;;;;;;;;;;;;4978722;28;19918;-77
2023/02/02 06:43:02;;;;;;;;;;;;;;;;;;4964107;28;20272;-77
2023/02/02 06:45:28;;;;;;;;;;;;;;;;;;4960973;28;20389;-77
2023/02/02 06:47:55;;;;;;;;;;;;;;;;;;4968969;28;19976;-77
2023/02/02 06:50:21;;;;;;;;;;;;;;;;;;4970257;28;19980;-77
2023/02/02 06:52:48;;;;;;;;;;;;;;;;;;4982085;28;19989;-77
2023/02/02 06:55:14;;;;;;;;;;;;;;;;;;4965814;28;19914;-77
2023/02/02 06:57:40;;;;;;;;;;;;;;;;;;4977390;28;19929;-75
2023/02/02 07:00:06;;;;;;;;;;;;;;;;;;4985275;28;20289;-76
2023/02/02 07:02:33;;;;;;;;;;;;;;;;;;4968885;28;19922;-75
2023/02/02 07:04:59;;;;;;;;;;;;;;;;;;4965595;28;19925;-75
2023/02/02 07:07:25;;;;;;;;;;;;;;;;;;4983709;28;19991;-75
2023/02/02 07:09:51;;;;;;;;;;;;;;;;;;4966127;28;19921;-78
2023/02/02 07:12:18;;;;;;;;;;;;;;;;;;4946635;28;20641;-76
2023/02/02 07:14:44;;;;;;;;;;;;;;;;;;4952914;28;19918;-77
2023/02/02 07:17:10;;;;;;;;;;;;;;;;;;4942861;28;19927;-77
2023/02/02 07:19:36;;;;;;;;;;;;;;;;;;4947802;28;19973;-77
2023/02/02 07:22:03;;;;;;;;;;;;;;;;;;4953664;28;19919;-77
2023/02/02 07:24:29;;;;;;;;;;;;;;;;;;4946702;28;19922;-78
2023/02/02 07:26:56;;;;;;;;;;;;;;;;;;4952233;28;20369;-76
2023/02/02 07:29:23;;;;;;;;;;;;;;;;;;4949654;28;19918;-77
2023/02/02 07:31:49;;;;;;;;;;;;;;;;;;4940266;28;20349;-77
2023/02/02 07:34:15;;;;;;;;;;;;;;;;;;4951448;28;19933;-77
2023/02/02 07:36:41;;;;;;;;;;;;;;;;;;4940604;28;19962;-76
2023/02/02 07:39:07;;;;;;;;;;;;;;;;;;4939914;28;20377;-76
2023/02/02 07:41:34;;;;;;;;;;;;;;;;;;4949801;28;19929;-75
2023/02/02 07:44:00;;;;;;;;;;;;;;;;;;4935626;28;19989;-77
2023/02/02 07:46:26;;;;;;;;;;;;;;;;;;4960888;28;19921;-76
2023/02/02 07:48:54;;;;;;;;;;;;;;;;;;4952840;28;19970;-75
2023/02/02 07:51:20;;;;;;;;;;;;;;;;;;4946451;28;20452;-75
2023/02/02 07:53:46;;;;;;;;;;;;;;;;;;4946910;28;19922;-76
2023/02/02 07:56:12;;;;;;;;;;;;;;;;;;4958335;28;19918;-76
2023/02/02 07:58:39;;;;;;;;;;;;;;;;;;4946588;28;19930;-76
2023/02/02 08:01:05;;;;;;;;;;;;;;;;;;4963118;28;19985;-76
2023/02/02 08:03:31;;;;;;;;;;;;;;;;;;4945511;28;19921;-76
2023/02/02 08:05:57;;;;;;;;;;;;;;;;;;4938796;28;20652;-76
2023/02/02 08:08:24;;;;;;;;;;;;;;;;;;4941428;28;19926;-76
2023/02/02 08:10:50;;;;;;;;;;;;;;;;;;4943525;28;19953;-77
2023/02/02 08:13:16;;;;;;;;;;;;;;;;;;4943684;28;19921;-77
2023/02/02 08:15:42;;;;;;;;;;;;;;;;;;4940927;28;19930;-75
2023/02/02 08:18:08;;;;;;;;;;;;;;;;;;4950405;28;20298;-76
2023/02/02 08:20:35;;;;;;;;;;;;;;;;;;4939278;28;20058;-75
2023/02/02 08:23:01;;;;;;;;;;;;;;;;;;4942038;28;19923;-78
2023/02/02 08:25:27;;;;;;;;;;;;;;;;;;4936359;28;19921;-75
2023/02/02 08:27:54;;;;;;;;;;;;;;;;;;4933965;28;19973;-75
2023/02/02 08:30:20;;;;;;;;;;;;;;;;;;4947484;28;19965;-76
2023/02/02 08:32:46;;;;;;;;;;;;;;;;;;4937617;28;20287;-76
2023/02/02 08:35:12;;;;;;;;;;;;;;;;;;4932158;28;19937;-75
2023/02/02 08:37:38;;;;;;;;;;;;;;;;;;4940459;28;19922;-76
2023/02/02 08:40:05;;;;;;;;;;;;;;;;;;4945584;28;19918;-76
2023/02/02 08:42:31;;;;;;;;;;;;;;;;;;4940399;28;20410;-80
2023/02/02 08:44:57;;;;;;;;;;;;;;;;;;4933098;28;19934;-78
2023/02/02 08:47:23;;;;;;;;;;;;;;;;;;4938789;28;19922;-78
2023/02/02 08:49:49;;;;;;;;;;;;;;;;;;4938386;28;19927;-79
2023/02/02 08:52:16;;;;;;;;;;;;;;;;;;4928072;28;19930;-79
2023/02/02 08:54:42;;;;;;;;;;;;;;;;;;4939055;28;19997;-79
2023/02/02 08:57:08;;;;;;;;;;;;;;;;;;4942198;28;19952;-79
2023/02/02 08:59:34;;;;;;;;;;;;;;;;;;4945121;28;19922;-79
2023/02/02 09:02:01;;;;;;;;;;;;;;;;;;4947105;28;20366;-79
2023/02/02 09:04:27;;;;;;;;;;;;;;;;;;4933341;28;19923;-78
2023/02/02 09:06:53;;;;;;;;;;;;;;;;;;4961141;28;20334;-78
2023/02/02 09:09:19;;;;;;;;;;;;;;;;;;4942580;28;19945;-78
2023/02/02 09:11:45;;;;;;;;;;;;;;;;;;4944422;28;20429;-79
2023/02/02 09:14:12;;;;;;;;;;;;;;;;;;4935163;28;19998;-78
2023/02/02 09:16:38;;;;;;;;;;;;;;;;;;4976615;28;19930;-78
2023/02/02 09:19:04;;;;;;;;;;;;;;;;;;4968632;28;19926;-79
2023/02/02 09:21:35;;;;;;;;;;;;;;;;;;4962364;28;19918;-79
2023/02/02 09:24:01;;;;;;;;;;;;;;;;;;4959779;28;19918;-77
2023/02/02 09:26:28;;;;;;;;;;;;;;;;;;4974104;28;19922;-78
2023/02/02 09:28:54;;;;;;;;;;;;;;;;;;4964641;28;19922;-78
2023/02/02 09:31:20;;;;;;;;;;;;;;;;;;4983407;28;20088;-79
2023/02/02 09:33:46;;;;;;;;;;;;;;;;;;4964975;28;19922;-79
2023/02/02 09:36:12;;;;;;;;;;;;;;;;;;4975991;28;19957;-78
2023/02/02 09:38:39;;;;;;;;;;;;;;;;;;4985946;28;19922;-78
2023/02/02 09:41:05;;;;;;;;;;;;;;;;;;4968931;28;19922;-79
2023/02/02 09:43:32;;;;;;;;;;;;;;;;;;4983174;28;20703;-78
2023/02/02 09:45:58;;;;;;;;;;;;;;;;;;4971847;28;19963;-78
2023/02/02 09:48:24;;;;;;;;;;;;;;;;;;4951327;28;19968;-78
2023/02/02 09:50:51;;;;;;;;;;;;;;;;;;4967847;28;20016;-78
2023/02/02 09:53:17;;;;;;;;;;;;;;;;;;4976850;28;19918;-79
2023/02/02 09:55:43;;;;;;;;;;;;;;;;;;4963770;28;19929;-79
2023/02/02 09:58:09;;;;;;;;;;;;;;;;;;4970368;28;19956;-80
2023/02/02 10:00:36;;;;;;;;;;;;;;;;;;4961211;28;19924;-79
2023/02/02 10:03:02;;;;;;;;;;;;;;;;;;4962974;28;19917;-79
2023/02/02 10:05:28;;;;;;;;;;;;;;;;;;4967930;28;19928;-79
2023/02/02 10:07:54;;;;;;;;;;;;;;;;;;4955225;28;19922;-80
2023/02/02 10:10:21;;;;;;;;;;;;;;;;;;4949674;28;20051;-78
2023/02/02 10:12:47;;;;;;;;;;;;;;;;;;4976606;28;20298;-77
2023/02/02 10:15:16;;;;;;;;;;;;;;;;;;4965558;28;19922;-77
2023/02/02 10:17:42;;;;;;;;;;;;;;;;;;4924731;28;19946;-78
2023/02/02 10:20:08;;;;;;;;;;;;;;;;;;4954341;28;19925;-78
2023/02/02 10:22:35;;;;;;;;;;;;;;;;;;4967477;28;19918;-78
2023/02/02 10:25:01;;;;;;;;;;;;;;;;;;4966014;28;19922;-78
2023/02/02 10:27:27;;;;;;;;;;;;;;;;;;4950978;28;19926;-78
2023/02/02 10:29:53;;;;;;;;;;;;;;;;;;4963176;28;19914;-78
2023/02/02 10:32:21;;;;;;;;;;;;;;;;;;4972508;28;19925;-79
2023/02/02 10:34:48;;;;;;;;;;;;;;;;;;4946740;28;19946;-79
2023/02/02 10:37:14;;;;;;;;;;;;;;;;;;4951193;28;19922;-79
2023/02/02 10:39:40;;;;;;;;;;;;;;;;;;4928191;28;19998;-79
2023/02/02 10:42:06;;;;;;;;;;;;;;;;;;4952629;28;19928;-78
2023/02/02 10:44:33;;;;;;;;;;;;;;;;;;4946076;28;19926;-79
2023/02/02 10:47:00;;;;;;;;;;;;;;;;;;4952535;28;20334;-79
2023/02/02 10:49:26;;;;;;;;;;;;;;;;;;4944165;28;20370;-79
2023/02/02 10:51:53;;;;;;;;;;;;;;;;;;4973022;28;19917;-79
2023/02/02 10:54:20;;;;;;;;;;;;;;;;;;4943735;28;19946;-79
2023/02/02 10:56:46;;;;;;;;;;;;;;;;;;4950815;28;19961;-79
2023/02/02 10:59:12;;;;;;;;;;;;;;;;;;4953254;28;20014;-79
2023/02/02 11:01:38;;;;;;;;;;;;;;;;;;4968425;28;19922;-79
2023/02/02 11:06:50;;;;;;;;;;;;;;;;;;4953892;28;19950;-79
2023/02/02 11:09:16;;;;;;;;;;;;;;;;;;4961578;28;19969;-79
2023/02/02 11:11:44;;;;;;;;;;;;;;;;;;4962102;28;19914;-79
2023/02/02 11:14:10;;;;;;;;;;;;;;;;;;4967870;28;19914;-79
2023/02/02 11:16:36;;;;;;;;;;;;;;;;;;4966052;28;19937;-79
2023/02/02 11:19:02;;;;;;;;;;;;;;;;;;4968296;28;19934;-79
2023/02/02 11:21:28;;;;;;;;;;;;;;;;;;4965308;28;19922;-79
2023/02/02 11:23:55;;;;;;;;;;;;;;;;;;4965560;28;19922;-79
2023/02/02 11:26:21;;;;;;;;;;;;;;;;;;4970660;28;20293;-79
2023/02/02 11:28:47;;;;;;;;;;;;;;;;;;4974687;28;19923;-79
2023/02/02 11:31:13;;;;;;;;;;;;;;;;;;4961705;28;19914;-79
2023/02/02 11:33:40;;;;;;;;;;;;;;;;;;4970790;28;19918;-82
2023/02/02 11:36:06;;;;;;;;;;;;;;;;;;4965896;28;19918;-79
2023/02/02 11:38:32;;;;;;;;;;;;;;;;;;4988731;28;20453;-79
2023/02/02 11:41:01;;;;;;;;;;;;;;;;;;4979794;28;19925;-79
2023/02/02 11:43:27;;;;;;;;;;;;;;;;;;4985577;28;20012;-79
2023/02/02 11:45:55;;;;;;;;;;;;;;;;;;4966815;28;21464;-79
2023/02/02 11:48:21;;;;;;;;;;;;;;;;;;4963454;28;19961;-77
2023/02/02 11:50:48;;;;;;;;;;;;;;;;;;4967105;28;19976;-77
2023/02/02 11:53:14;;;;;;;;;;;;;;;;;;4971327;28;19949;-79
2023/02/02 11:55:40;;;;;;;;;;;;;;;;;;4977021;28;19914;-78
2023/02/02 11:58:06;;;;;;;;;;;;;;;;;;4970117;28;19936;-80
2023/02/02 12:00:33;;;;;;;;;;;;;;;;;;4978180;28;19949;-78
2023/02/02 12:02:59;;;;;;;;;;;;;;;;;;4967871;28;19914;-79
2023/02/02 12:05:25;;;;;;;;;;;;;;;;;;4961833;28;19914;-78
2023/02/02 12:07:51;;;;;;;;;;;;;;;;;;4974287;28;19921;-78
2023/02/02 12:10:17;;;;;;;;;;;;;;;;;;4985221;28;19925;-77
2023/02/02 12:12:44;;;;;;;;;;;;;;;;;;4976591;28;19945;-79
2023/02/02 12:15:10;;;;;;;;;;;;;;;;;;4965928;28;19918;-79
2023/02/02 12:17:40;;;;;;;;;;;;;;;;;;4958968;28;20690;-79
2023/02/02 12:20:07;;;;;;;;;;;;;;;;;;4987943;28;19929;-79
2023/02/02 12:22:33;;;;;;;;;;;;;;;;;;4954063;28;20008;-79
2023/02/02 12:24:59;;;;;;;;;;;;;;;;;;4980528;28;19917;-78
2023/02/02 12:27:25;;;;;;;;;;;;;;;;;;4968032;28;19941;-78
2023/02/02 12:29:52;;;;;;;;;;;;;;;;;;4964826;28;19924;-78
2023/02/02 12:32:18;;;;;;;;;;;;;;;;;;4976846;28;20386;-78
2023/02/02 12:34:44;;;;;;;;;;;;;;;;;;4979463;28;19926;-77
2023/02/02 12:37:10;;;;;;;;;;;;;;;;;;4960742;28;19980;-77
2023/02/02 12:39:37;;;;;;;;;;;;;;;;;;4969429;28;19989;-78
2023/02/02 12:42:03;;;;;;;;;;;;;;;;;;4961150;28;20263;-78
2023/02/02 12:44:29;;;;;;;;;;;;;;;;;;4980953;28;19969;-77
2023/02/02 12:46:55;;;;;;;;;;;;;;;;;;4952038;28;19976;-77
2023/02/02 12:49:22;;;;;;;;;;;;;;;;;;4955902;28;19961;-78
2023/02/02 12:51:48;;;;;;;;;;;;;;;;;;4959033;28;19922;-78
2023/02/02 12:54:16;;;;;;;;;;;;;;;;;;4964263;28;20032;-78
2023/02/02 12:56:42;;;;;;;;;;;;;;;;;;4972191;28;19924;-78
2023/02/02 12:59:09;;;;;;;;;;;;;;;;;;4964300;28;20341;-78
2023/02/02 13:01:37;;;;;;;;;;;;;;;;;;4953499;28;20291;-79
2023/02/02 13:04:03;;;;;;;;;;;;;;;;;;4966210;28;19914;-79
2023/02/02 13:06:30;;;;;;;;;;;;;;;;;;4953771;28;19977;-82
2023/02/02 13:08:56;;;;;;;;;;;;;;;;;;4971591;28;19947;-82
2023/02/02 13:11:29;;;;;;;;;;;;;;;;;;4962593;28;19970;-82
2023/02/02 13:13:55;;;;;;;;;;;;;;;;;;4962663;28;19930;-83
2023/02/02 13:16:22;;;;;;;;;;;;;;;;;;4978291;28;19930;-82
2023/02/02 13:18:48;;;;;;;;;;;;;;;;;;4950986;28;19993;-82
2023/02/02 13:21:15;;;;;;;;;;;;;;;;;;4939764;28;19953;-83
2023/02/02 13:23:42;;;;;;;;;;;;;;;;;;4924585;28;20332;-83
2023/02/02 13:26:12;;;;;;;;;;;;;;;;;;4950961;28;19993;-82
2023/02/02 13:28:38;;;;;;;;;;;;;;;;;;4937528;28;20393;-82
2023/02/02 13:31:04;;;;;;;;;;;;;;;;;;4949928;28;19925;-83
2023/02/02 13:33:30;;;;;;;;;;;;;;;;;;4958848;28;19923;-83
2023/02/02 13:35:57;;;;;;;;;;;;;;;;;;4936376;28;19918;-83
2023/02/02 13:38:23;;;;;;;;;;;;;;;;;;4946722;28;19929;-83
2023/02/02 13:40:49;;;;;;;;;;;;;;;;;;4942822;28;20382;-83
2023/02/02 13:43:16;;;;;;;;;;;;;;;;;;4942387;28;19964;-82
2023/02/02 13:45:42;;;;;;;;;;;;;;;;;;4954258;28;19918;-82
2023/02/02 13:48:08;;;;;;;;;;;;;;;;;;4954574;28;19944;-82
2023/02/02 13:50:35;;;;;;;;;;;;;;;;;;4936820;28;19930;-84
2023/02/02 13:53:01;;;;;;;;;;;;;;;;;;4950419;28;19922;-82
2023/02/02 13:55:27;;;;;;;;;;;;;;;;;;4956668;28;19925;-80
2023/02/02 13:57:55;;;;;;;;;;;;;;;;;;4954464;28;19926;-83
2023/02/02 14:00:21;;;;;;;;;;;;;;;;;;4971914;28;19922;-81
2023/02/02 14:02:48;;;;;;;;;;;;;;;;;;4963392;28;19926;-82
2023/02/02 14:05:14;;;;;;;;;;;;;;;;;;4961239;28;19919;-82
2023/02/02 14:07:40;;;;;;;;;;;;;;;;;;4951478;28;20707;-82
2023/02/02 14:10:06;;;;;;;;;;;;;;;;;;4943055;28;19953;-83
2023/02/02 14:12:33;;;;;;;;;;;;;;;;;;4949890;28;20457;-82
2023/02/02 14:14:59;;;;;;;;;;;;;;;;;;4943783;28;19925;-81
2023/02/02 14:17:25;;;;;;;;;;;;;;;;;;4977503;28;19958;-82
2023/02/02 14:19:51;;;;;;;;;;;;;;;;;;4980488;28;19932;-82
2023/02/02 14:22:18;;;;;;;;;;;;;;;;;;4962778;28;20370;-82
2023/02/02 14:24:44;;;;;;;;;;;;;;;;;;4977890;28;19961;-81
2023/02/02 14:27:10;;;;;;;;;;;;;;;;;;4960829;28;19918;-83
2023/02/02 14:29:39;;;;;;;;;;;;;;;;;;4981571;28;19922;-83
2023/02/02 14:32:05;;;;;;;;;;;;;;;;;;4963477;28;19973;-84
2023/02/02 14:34:35;;;;;;;;;;;;;;;;;;4980736;28;19926;-83
2023/02/02 14:37:04;;;;;;;;;;;;;;;;;;4967056;28;20297;-85
2023/02/02 14:39:30;;;;;;;;;;;;;;;;;;4977452;28;19938;-81
2023/02/02 14:44:41;;;;;;;;;;;;;;;;;;4961606;28;19942;-83
2023/02/02 14:47:08;;;;;;;;;;;;;;;;;;4980772;28;19985;-82
2023/02/02 14:49:34;;;;;;;;;;;;;;;;;;4980643;28;20370;-82
2023/02/02 14:52:00;;;;;;;;;;;;;;;;;;4966920;28;19929;-82
2023/02/02 14:54:27;;;;;;;;;;;;;;;;;;4969132;28;20369;-82
2023/02/02 14:56:53;;;;;;;;;;;;;;;;;;4955781;28;20358;-83
2023/02/02 14:59:19;;;;;;;;;;;;;;;;;;4989800;28;20003;-82
2023/02/02 15:01:45;;;;;;;;;;;;;;;;;;4982455;28;19926;-82
2023/02/02 15:04:12;;;;;;;;;;;;;;;;;;4956217;28;19918;-82
2023/02/02 15:06:40;;;;;;;;;;;;;;;;;;4965401;28;20350;-83
2023/02/02 15:09:07;;;;;;;;;;;;;;;;;;4961192;28;19922;-82
2023/02/02 15:11:33;;;;;;;;;;;;;;;;;;4956356;28;19968;-81
2023/02/02 15:14:05;;;;;;;;;;;;;;;;;;4958754;28;19926;-82
2023/02/02 15:16:31;;;;;;;;;;;;;;;;;;4957664;28;19974;-82
2023/02/02 15:18:58;;;;;;;;;;;;;;;;;;4933664;28;19996;-82
2023/02/02 15:21:24;;;;;;;;;;;;;;;;;;4939137;28;19930;-82
2023/02/02 15:23:50;;;;;;;;;;;;;;;;;;4957566;28;19918;-82
2023/02/02 15:26:16;;;;;;;;;;;;;;;;;;4953712;28;19918;-82
2023/02/02 15:28:45;;;;;;;;;;;;;;;;;;4949529;28;20409;-81
2023/02/02 15:31:12;;;;;;;;;;;;;;;;;;4940157;28;19925;-84
2023/02/02 15:33:38;;;;;;;;;;;;;;;;;;4947505;28;19921;-77
2023/02/02 15:36:05;;;;;;;;;;;;;;;;;;4942814;28;19929;-77
2023/02/02 15:38:32;;;;;;;;;;;;;;;;;;4944194;28;20401;-77
2023/02/02 15:40:58;;;;;;;;;;;;;;;;;;4959685;28;19921;-77
2023/02/02 15:43:25;;;;;;;;;;;;;;;;;;4955882;28;20422;-77
2023/02/02 15:45:54;;;;;;;;;;;;;;;;;;4946232;28;19922;-77
2023/02/02 15:48:20;;;;;;;;;;;;;;;;;;4945617;28;19922;-78
2023/02/02 15:50:46;;;;;;;;;;;;;;;;;;4952241;28;20382;-78
2023/02/02 15:53:12;;;;;;;;;;;;;;;;;;4938482;28;19947;-77
2023/02/02 15:55:39;;;;;;;;;;;;;;;;;;4940484;28;19919;-77
2023/02/02 15:58:05;;;;;;;;;;;;;;;;;;4943742;28;19941;-78
2023/02/02 16:00:31;;;;;;;;;;;;;;;;;;4941629;28;19914;-78
2023/02/02 16:02:57;;;;;;;;;;;;;;;;;;4941576;28;20374;-78
2023/02/02 16:05:24;;;;;;;;;;;;;;;;;;4955060;28;19965;-78
2023/02/02 16:07:50;;;;;;;;;;;;;;;;;;4939436;28;19925;-77
2023/02/02 16:10:16;;;;;;;;;;;;;;;;;;4970662;28;20681;-78
2023/02/02 16:12:42;;;;;;;;;;;;;;;;;;4954199;28;19926;-78
2023/02/02 16:15:09;;;;;;;;;;;;;;;;;;4947839;28;20008;-78
2023/02/02 16:17:35;;;;;;;;;;;;;;;;;;4961696;28;20393;-78
2023/02/02 16:20:01;;;;;;;;;;;;;;;;;;4963876;28;19957;-78
2023/02/02 16:22:29;;;;;;;;;;;;;;;;;;4958440;28;20432;-78
2023/02/02 16:24:55;;;;;;;;;;;;;;;;;;4961520;28;19926;-78
2023/02/02 16:27:21;;;;;;;;;;;;;;;;;;4966242;28;19926;-78
2023/02/02 16:29:48;;;;;;;;;;;;;;;;;;4960694;28;19917;-78
2023/02/02 16:32:14;;;;;;;;;;;;;;;;;;4960787;28;19969;-78
2023/02/02 16:34:40;;;;;;;;;;;;;;;;;;4952614;28;19919;-77
2023/02/02 16:37:06;;;;;;;;;;;;;;;;;;4984814;28;19973;-77
2023/02/02 16:39:33;;;;;;;;;;;;;;;;;;4986064;28;20012;-78
2023/02/02 16:41:59;;;;;;;;;;;;;;;;;;4970915;28;20281;-77
2023/02/02 16:44:26;;;;;;;;;;;;;;;;;;4964944;28;19944;-77
2023/02/02 16:46:52;;;;;;;;;;;;;;;;;;4967402;28;20039;-79
2023/02/02 16:49:18;;;;;;;;;;;;;;;;;;4967793;28;19922;-78
2023/02/02 16:51:45;;;;;;;;;;;;;;;;;;4967799;28;19968;-79